createdAt,value
2019-04-30T00:01:55.789Z,11.30
2019-04-30T00:04:17.459Z,11.30
2019-04-30T00:06:28.875Z,11.30
2019-04-30T00:08:30.167Z,11.30
2019-04-30T00:10:41.235Z,11.30
2019-04-30T00:12:45.004Z,11.20
2019-04-30T00:14:49.166Z,11.20
2019-04-30T00:16:54.675Z,11.20
2019-04-30T00:19:00.872Z,11.20
2019-04-30T00:21:05.441Z,11.20
2019-04-30T00:23:09.631Z,11.10
2019-04-30T00:25:15.303Z,11.10
2019-04-30T00:27:21.088Z,11.00
2019-04-30T00:29:30.212Z,11.00
2019-04-30T00:31:30.879Z,11.00
2019-04-30T00:33:35.401Z,11.00
2019-04-30T00:35:45.289Z,11.10
2019-04-30T00:37:57.545Z,11.10
2019-04-30T00:40:30.248Z,11.00
2019-04-30T00:42:33.160Z,11.00
2019-04-30T00:44:37.264Z,11.00
2019-04-30T00:46:41.178Z,11.00
2019-04-30T00:48:52.641Z,11.00
2019-04-30T00:50:56.756Z,11.00
2019-04-30T00:53:07.268Z,11.00
2019-04-30T00:55:09.010Z,11.00
2019-04-30T00:57:12.218Z,11.00
2019-04-30T00:59:16.132Z,11.00
2019-04-30T01:01:58.619Z,11.00
2019-04-30T01:04:30.651Z,10.90
2019-04-30T01:06:49.805Z,11.00
2019-04-30T01:09:12.655Z,11.00
2019-04-30T01:11:16.623Z,10.90
2019-04-30T01:13:20.666Z,10.90
2019-04-30T01:15:24.779Z,10.90
2019-04-30T01:17:30.000Z,10.90
2019-04-30T01:19:34.209Z,10.90
2019-04-30T01:21:41.766Z,10.90
2019-04-30T01:23:51.742Z,10.90
2019-04-30T01:25:51.439Z,10.90
2019-04-30T01:27:55.647Z,10.90
2019-04-30T01:29:59.985Z,10.90
2019-04-30T01:32:04.007Z,10.90
2019-04-30T01:34:12.354Z,10.80
2019-04-30T01:36:13.766Z,10.90
2019-04-30T01:38:18.914Z,10.90
2019-04-30T01:40:22.926Z,10.90
2019-04-30T01:42:59.929Z,10.90
2019-04-30T01:45:04.082Z,10.90
2019-04-30T01:47:08.981Z,10.90
2019-04-30T01:49:16.079Z,10.90
2019-04-30T01:51:21.744Z,10.90
2019-04-30T01:53:25.677Z,10.90
2019-04-30T01:56:03.889Z,10.90
2019-04-30T01:58:20.369Z,10.90
2019-04-30T02:00:30.396Z,10.80
2019-04-30T02:02:39.483Z,10.80
2019-04-30T02:05:03.169Z,10.80
2019-04-30T02:07:19.577Z,10.80
2019-04-30T02:09:50.625Z,10.80
2019-04-30T02:12:15.569Z,10.80
2019-04-30T02:14:47.245Z,10.80
2019-04-30T02:17:03.461Z,10.70
2019-04-30T02:19:31.933Z,10.70
2019-04-30T02:21:35.935Z,10.70
2019-04-30T02:23:39.741Z,10.70
2019-04-30T02:25:43.910Z,10.60
2019-04-30T02:27:48.943Z,10.60
2019-04-30T02:29:52.870Z,10.60
2019-04-30T02:31:56.862Z,10.70
2019-04-30T02:34:10.162Z,10.60
2019-04-30T02:36:29.923Z,10.50
2019-04-30T02:38:35.812Z,10.40
2019-04-30T02:40:42.658Z,10.20
2019-04-30T02:42:45.577Z,10.10
2019-04-30T02:44:50.492Z,9.90
2019-04-30T02:47:00.127Z,9.80
2019-04-30T02:49:05.453Z,9.80
2019-04-30T02:51:26.385Z,9.80
2019-04-30T02:54:15.469Z,9.90
2019-04-30T02:56:29.908Z,9.90
2019-04-30T02:58:56.780Z,10.00
2019-04-30T03:01:05.220Z,10.10
2019-04-30T03:03:20.393Z,10.10
2019-04-30T03:08:15.917Z,10.20
2019-04-30T03:10:54.427Z,10.20
2019-04-30T03:13:05.718Z,10.30
2019-04-30T03:15:30.505Z,10.30
2019-04-30T03:17:52.056Z,10.30
2019-04-30T03:20:03.470Z,10.40
2019-04-30T03:22:34.734Z,10.40
2019-04-30T03:24:55.452Z,10.40
2019-04-30T03:27:09.702Z,10.30
2019-04-30T03:29:25.968Z,10.20
2019-04-30T03:31:44.070Z,10.10
2019-04-30T03:34:01.952Z,10.00
2019-04-30T03:36:21.348Z,9.90
2019-04-30T03:38:39.628Z,9.90
2019-04-30T03:40:50.245Z,9.90
2019-04-30T03:43:03.840Z,9.80
2019-04-30T03:45:33.180Z,9.80
2019-04-30T03:47:50.468Z,9.70
2019-04-30T03:50:22.210Z,9.60
2019-04-30T03:57:30.281Z,9.20
2019-04-30T03:59:52.206Z,9.00
2019-04-30T04:02:20.819Z,9.00
2019-04-30T04:04:52.839Z,8.90
2019-04-30T04:07:05.962Z,8.80
2019-04-30T04:09:16.581Z,8.70
2019-04-30T04:11:26.850Z,8.60
2019-04-30T04:13:33.129Z,8.50
2019-04-30T04:15:36.356Z,8.50
2019-04-30T04:17:40.732Z,8.50
2019-04-30T04:19:44.529Z,8.40
2019-04-30T04:21:50.970Z,8.40
2019-04-30T04:23:54.164Z,8.30
2019-04-30T04:25:59.576Z,8.30
2019-04-30T04:28:06.406Z,8.30
2019-04-30T04:30:10.861Z,8.30
2019-04-30T04:32:14.755Z,8.40
2019-04-30T04:34:19.891Z,8.40
2019-04-30T04:36:23.727Z,8.40
2019-04-30T04:38:30.182Z,8.50
2019-04-30T04:40:34.960Z,8.50
2019-04-30T04:43:00.318Z,8.50
2019-04-30T04:45:33.633Z,8.60
2019-04-30T04:48:09.657Z,8.70
2019-04-30T04:50:30.026Z,8.80
2019-04-30T04:53:07.770Z,9.00
2019-04-30T04:55:22.269Z,9.20
2019-04-30T04:57:41.831Z,9.30
2019-04-30T05:00:03.478Z,9.40
2019-04-30T05:02:34.427Z,9.50
2019-04-30T05:07:31.479Z,9.70
2019-04-30T05:10:01.477Z,9.80
2019-04-30T05:12:29.797Z,9.90
2019-04-30T05:14:49.020Z,10.00
2019-04-30T05:17:06.014Z,10.10
2019-04-30T05:19:18.527Z,10.20
2019-04-30T05:22:04.313Z,10.30
2019-04-30T05:24:38.433Z,10.60
2019-04-30T05:29:49.723Z,10.60
2019-04-30T05:32:15.214Z,10.70
2019-04-30T05:34:51.754Z,11.80
2019-04-30T05:39:33.957Z,12.60
2019-04-30T05:42:22.247Z,12.80
2019-04-30T05:44:32.583Z,12.80
2019-04-30T05:47:09.287Z,12.60
2019-04-30T05:49:24.958Z,12.40
2019-04-30T05:51:59.981Z,12.30
2019-04-30T05:54:33.219Z,12.20
2019-04-30T05:56:59.398Z,12.10
2019-04-30T05:59:31.158Z,12.00
2019-04-30T06:02:05.826Z,11.80
2019-04-30T06:04:49.496Z,11.80
2019-04-30T06:07:01.720Z,12.10
2019-04-30T06:23:04.895Z,12.70
2019-04-30T06:27:33.215Z,12.70
2019-04-30T06:30:30.282Z,12.80
2019-04-30T06:33:05.822Z,12.70
2019-04-30T06:35:43.428Z,12.60
2019-04-30T06:38:20.268Z,12.70
2019-04-30T06:40:36.390Z,12.80
2019-04-30T06:43:05.125Z,13.00
2019-04-30T06:48:41.924Z,13.50
2019-04-30T06:50:49.098Z,13.70
2019-04-30T06:53:09.345Z,14.20
2019-04-30T06:55:49.245Z,14.60
2019-04-30T06:58:20.433Z,14.40
2019-04-30T07:00:40.884Z,14.40
2019-04-30T07:02:59.096Z,14.50
2019-04-30T07:05:25.006Z,14.60
2019-04-30T07:08:09.901Z,14.60
2019-04-30T07:10:36.167Z,14.30
2019-04-30T07:13:39.498Z,13.90
2019-04-30T07:16:35.254Z,13.60
2019-04-30T07:22:39.692Z,13.90
2019-04-30T07:25:19.590Z,14.20
2019-04-30T07:27:24.335Z,14.40
2019-04-30T07:29:29.567Z,14.70
2019-04-30T07:31:33.773Z,14.90
2019-04-30T07:33:39.624Z,15.10
2019-04-30T07:35:43.723Z,15.40
2019-04-30T07:37:49.469Z,15.40
2019-04-30T07:39:53.434Z,15.30
2019-04-30T07:45:39.830Z,15.50
2019-04-30T07:48:09.235Z,15.20
2019-04-30T07:53:02.582Z,14.80
2019-04-30T07:55:23.293Z,15.10
2019-04-30T07:58:01.093Z,15.40
2019-04-30T08:00:19.352Z,15.40
2019-04-30T08:05:25.804Z,16.10
2019-04-30T08:08:19.106Z,16.40
2019-04-30T08:10:43.627Z,16.80
2019-04-30T08:13:33.681Z,16.80
2019-04-30T08:16:22.004Z,16.80
2019-04-30T08:18:54.449Z,16.50
2019-04-30T08:22:14.613Z,16.00
2019-04-30T08:24:06.443Z,16.00
2019-04-30T08:26:29.898Z,15.90
2019-04-30T08:28:54.296Z,15.30
2019-04-30T08:31:36.569Z,15.10
2019-04-30T08:34:12.413Z,15.10
2019-04-30T08:39:19.616Z,15.30
2019-04-30T08:41:49.288Z,15.10
2019-04-30T08:44:20.804Z,14.90
2019-04-30T08:50:25.552Z,14.60
2019-04-30T08:59:53.308Z,14.90
2019-04-30T09:05:32.647Z,14.70
2019-04-30T09:08:19.415Z,14.80
2019-04-30T09:13:25.349Z,14.70
2019-04-30T09:16:23.342Z,14.70
2019-04-30T09:22:56.514Z,14.70
2019-04-30T09:25:55.922Z,14.80
2019-04-30T09:28:41.127Z,14.70
2019-04-30T09:32:55.307Z,14.70
2019-04-30T09:35:40.856Z,14.90
2019-04-30T09:39:10.807Z,14.90
2019-04-30T09:42:01.291Z,15.00
2019-04-30T10:08:05.429Z,15.30
2019-04-30T10:11:05.206Z,15.40
2019-04-30T10:11:09.807Z,15.00
2019-04-30T10:11:44.385Z,15.30
2019-04-30T10:14:47.087Z,15.50
2019-04-30T10:21:29.021Z,16.00
2019-04-30T10:27:38.774Z,15.90
2019-04-30T10:30:50.763Z,15.80
2019-04-30T10:44:26.186Z,16.10
2019-04-30T10:46:37.157Z,16.20
2019-04-30T10:56:22.108Z,16.40
2019-04-30T11:15:06.682Z,17.00
2019-04-30T11:18:05.234Z,16.70
2019-04-30T11:42:24.808Z,18.00
2019-04-30T11:45:01.007Z,18.10
2019-04-30T11:48:22.149Z,18.10
2019-04-30T11:51:39.203Z,18.30
2019-04-30T11:58:48.855Z,18.10
2019-04-30T12:04:52.433Z,18.30
2019-04-30T12:29:41.190Z,18.60
2019-04-30T12:36:34.959Z,18.80
2019-04-30T12:46:14.796Z,19.00
2019-04-30T13:02:25.522Z,19.10
2019-04-30T13:13:23.512Z,19.30
2019-04-30T13:17:26.609Z,19.20
2019-04-30T13:27:22.334Z,19.00
2019-04-30T13:30:11.400Z,19.00
2019-04-30T13:40:20.301Z,18.80
2019-04-30T13:59:35.695Z,18.80
2019-04-30T14:22:00.923Z,18.80
2019-04-30T14:34:22.037Z,18.80
2019-04-30T14:41:15.638Z,19.00
2019-04-30T14:47:30.219Z,18.90
2019-04-30T14:50:02.711Z,18.90
2019-04-30T14:52:36.603Z,18.80
2019-04-30T14:58:16.108Z,18.90
2019-04-30T15:01:34.560Z,18.80
2019-04-30T15:03:51.576Z,18.50
2019-04-30T15:09:03.455Z,18.70
2019-04-30T15:11:22.648Z,18.70
2019-04-30T15:14:04.587Z,18.80
2019-04-30T15:16:32.887Z,18.60
2019-04-30T15:18:29.017Z,18.40
2019-04-30T15:20:59.545Z,18.30
2019-04-30T15:24:01.637Z,18.30
2019-04-30T15:26:59.847Z,18.30
2019-04-30T15:29:19.057Z,18.30
2019-04-30T15:32:02.923Z,18.30
2019-04-30T15:34:44.036Z,18.40
2019-04-30T15:37:23.811Z,18.40
2019-04-30T15:39:39.348Z,18.50
2019-04-30T15:41:48.355Z,18.60
2019-04-30T15:43:53.266Z,18.50
2019-04-30T15:45:57.523Z,18.50
2019-04-30T15:48:01.842Z,18.50
2019-04-30T15:50:06.459Z,18.50
2019-04-30T15:52:43.445Z,18.40
2019-04-30T15:54:56.298Z,18.30
2019-04-30T15:57:00.241Z,18.30
2019-04-30T15:59:40.654Z,18.20
2019-04-30T16:01:48.416Z,18.20
2019-04-30T16:03:54.628Z,18.20
2019-04-30T16:06:11.851Z,18.20
2019-04-30T16:08:21.117Z,18.20
2019-04-30T16:11:12.435Z,18.20
2019-04-30T16:13:21.288Z,18.10
2019-04-30T16:15:51.105Z,18.20
2019-04-30T16:18:00.311Z,18.30
2019-04-30T16:24:24.575Z,18.20
2019-04-30T16:26:31.882Z,18.10
2019-04-30T16:28:51.642Z,18.10
2019-04-30T16:31:23.623Z,18.10
2019-04-30T16:34:09.004Z,18.10
2019-04-30T16:36:32.507Z,18.10
2019-04-30T16:38:38.588Z,18.00
2019-04-30T16:40:42.558Z,18.00
2019-04-30T16:42:49.799Z,18.00
2019-04-30T16:45:01.425Z,18.00
2019-04-30T16:47:19.915Z,18.00
2019-04-30T16:49:49.270Z,18.00
2019-04-30T16:52:24.314Z,18.00
2019-04-30T16:54:28.834Z,18.10
2019-04-30T16:57:06.135Z,18.00
2019-04-30T16:59:19.720Z,17.90
2019-04-30T17:01:23.998Z,18.00
2019-04-30T17:03:38.805Z,18.00
2019-04-30T17:06:10.838Z,17.90
2019-04-30T17:08:49.446Z,17.90
2019-04-30T17:11:17.507Z,17.90
2019-04-30T17:13:59.533Z,17.90
2019-04-30T17:16:30.208Z,17.80
2019-04-30T17:18:50.526Z,17.60
2019-04-30T17:23:52.010Z,17.60
2019-04-30T17:26:04.197Z,17.50
2019-04-30T17:28:09.232Z,17.50
2019-04-30T17:30:19.340Z,17.50
2019-04-30T17:32:29.891Z,17.50
2019-04-30T17:34:41.920Z,17.40
2019-04-30T17:36:44.768Z,17.40
2019-04-30T17:38:54.837Z,17.30
2019-04-30T17:40:58.953Z,17.20
2019-04-30T17:43:03.499Z,17.10
2019-04-30T17:45:09.566Z,17.10
2019-04-30T17:47:14.118Z,17.10
2019-04-30T17:49:18.967Z,17.00
2019-04-30T17:51:23.577Z,17.00
2019-04-30T17:53:28.754Z,16.90
2019-04-30T17:58:16.235Z,16.90
2019-04-30T18:00:29.173Z,16.70
2019-04-30T18:02:30.067Z,16.70
2019-04-30T18:04:34.820Z,16.60
2019-04-30T18:06:38.797Z,16.60
2019-04-30T18:08:50.282Z,16.50
2019-04-30T18:10:54.336Z,16.60
2019-04-30T18:13:30.375Z,16.80
2019-04-30T18:15:34.636Z,16.50
2019-04-30T18:17:38.584Z,16.40
2019-04-30T18:20:01.325Z,16.30
2019-04-30T18:22:21.827Z,16.10
2019-04-30T18:24:39.267Z,16.00
2019-04-30T18:26:50.193Z,15.70
2019-04-30T18:28:54.762Z,15.70
2019-04-30T18:30:59.147Z,15.60
2019-04-30T18:33:04.381Z,15.50
2019-04-30T18:35:08.728Z,15.40
2019-04-30T18:37:16.360Z,15.30
2019-04-30T18:39:33.390Z,15.20
2019-04-30T18:42:13.263Z,15.10
2019-04-30T18:46:33.074Z,14.90
2019-04-30T18:49:02.601Z,14.70
2019-04-30T18:51:36.554Z,14.60
2019-04-30T18:54:07.753Z,14.50
2019-04-30T18:56:44.330Z,14.50
2019-04-30T18:59:19.648Z,14.20
2019-04-30T19:01:45.757Z,14.20
2019-04-30T19:04:22.358Z,14.10
2019-04-30T19:06:54.472Z,14.00
2019-04-30T19:09:44.033Z,13.90
2019-04-30T19:11:56.352Z,13.80
2019-04-30T19:14:26.456Z,13.60
2019-04-30T19:16:50.354Z,13.50
2019-04-30T19:19:22.398Z,13.40
2019-04-30T19:21:35.317Z,13.40
2019-04-30T19:23:39.700Z,13.30
2019-04-30T19:26:05.547Z,13.30
2019-04-30T19:28:14.301Z,13.20
2019-04-30T19:30:16.171Z,13.20
2019-04-30T19:32:20.486Z,13.10
2019-04-30T19:34:24.655Z,13.10
2019-04-30T19:36:37.403Z,13.10
2019-04-30T19:38:34.909Z,13.10
2019-04-30T19:40:39.266Z,13.00
2019-04-30T19:42:43.555Z,12.90
2019-04-30T19:44:57.199Z,12.90
2019-04-30T19:47:24.516Z,12.90
2019-04-30T19:49:28.765Z,12.80
2019-04-30T19:51:32.979Z,12.80
2019-04-30T19:53:49.115Z,12.70
2019-04-30T19:55:53.280Z,12.60
2019-04-30T20:00:12.631Z,12.50
2019-04-30T20:02:19.103Z,12.50
2019-04-30T20:04:33.178Z,12.40
2019-04-30T20:06:33.148Z,12.40
2019-04-30T20:08:39.637Z,12.40
2019-04-30T20:10:43.533Z,12.30
2019-04-30T20:12:49.294Z,12.30
2019-04-30T20:14:53.543Z,12.20
2019-04-30T20:16:59.000Z,12.20
2019-04-30T20:19:03.352Z,12.20
2019-04-30T20:21:11.057Z,12.10
2019-04-30T20:23:15.185Z,12.10
2019-04-30T20:25:19.257Z,12.10
2019-04-30T20:27:23.180Z,12.10
2019-04-30T20:29:28.896Z,12.10
2019-04-30T20:31:33.146Z,12.00
2019-04-30T20:33:38.858Z,12.00
2019-04-30T20:35:42.887Z,12.00
2019-04-30T20:38:04.688Z,11.90
2019-04-30T20:40:13.725Z,11.90
2019-04-30T20:42:17.833Z,11.90
2019-04-30T20:44:21.868Z,11.80
2019-04-30T20:46:32.639Z,11.80
2019-04-30T20:48:31.752Z,11.80
2019-04-30T20:50:36.185Z,11.80
2019-04-30T20:52:49.058Z,11.80
2019-04-30T20:54:54.079Z,11.80
2019-04-30T20:57:36.680Z,11.80
2019-04-30T20:59:40.902Z,11.80
2019-04-30T21:03:11.509Z,11.70
2019-04-30T21:04:14.832Z,11.70
2019-04-30T21:06:19.746Z,11.70
2019-04-30T21:08:24.072Z,11.70
2019-04-30T21:11:19.374Z,11.70
2019-04-30T21:24:08.806Z,11.50
2019-04-30T21:35:07.974Z,11.20
2019-04-30T21:37:12.791Z,11.20
2019-04-30T21:39:17.105Z,11.10
2019-04-30T21:41:27.031Z,11.10
2019-04-30T21:43:34.280Z,11.00
2019-04-30T21:45:59.457Z,11.00
2019-04-30T21:48:26.046Z,10.90
2019-04-30T22:02:46.700Z,10.70
2019-04-30T22:04:50.524Z,10.60
2019-04-30T22:06:55.081Z,10.50
2019-04-30T22:09:28.751Z,10.50
2019-04-30T22:11:44.239Z,10.50
2019-04-30T22:13:44.588Z,10.40
2019-04-30T22:25:26.812Z,10.30
2019-04-30T22:31:04.485Z,10.20
2019-04-30T22:33:39.041Z,10.10
2019-04-30T22:36:21.034Z,10.00
2019-04-30T22:38:25.759Z,10.00
2019-04-30T22:40:31.613Z,9.90
2019-04-30T22:44:40.293Z,9.90
2019-04-30T22:47:05.497Z,9.80
2019-04-30T22:49:09.925Z,9.80
2019-04-30T22:52:13.456Z,9.70
2019-04-30T22:54:53.724Z,9.70
2019-04-30T22:57:22.467Z,9.70
2019-04-30T23:00:04.998Z,9.60
2019-04-30T23:03:18.773Z,9.60
2019-04-30T23:04:58.237Z,9.50
2019-04-30T23:07:25.435Z,9.50
2019-04-30T23:09:29.652Z,9.50
2019-04-30T23:11:33.625Z,9.40
2019-04-30T23:13:37.560Z,9.40
2019-04-30T23:15:56.205Z,9.40
2019-04-30T23:18:32.275Z,9.30
2019-04-30T23:20:36.482Z,9.30
2019-04-30T23:25:33.705Z,9.20
2019-04-30T23:27:49.644Z,9.20
2019-04-30T23:30:23.909Z,9.10
2019-04-30T23:32:28.021Z,9.10
2019-04-30T23:35:06.814Z,9.10
2019-04-30T23:37:40.656Z,9.00
2019-04-30T23:39:56.679Z,9.00
2019-04-30T23:42:40.959Z,9.00
2019-04-30T23:44:56.852Z,8.90
2019-04-30T23:46:58.102Z,8.90
2019-04-30T23:49:02.153Z,8.90
2019-04-30T23:51:24.597Z,8.90
2019-04-30T23:53:28.507Z,8.90
2019-04-30T23:55:32.534Z,9.00
